sensor_id;sensor_type;location;lat;lon;timestamp;pressure;altitude;pressure_sealevel;temperature;humidity
64192;BME280;50497;50.720;-2.084;2022-12-15T00:02:32;101100.38;;;-1.97;100.00
64192;BME280;50497;50.720;-2.084;2022-12-15T00:05:16;101089.88;;;-1.98;100.00
64192;BME280;50497;50.720;-2.084;2022-12-15T00:08:08;101087.28;;;-1.95;100.00
64192;BME280;50497;50.720;-2.084;2022-12-15T00:10:52;101079.41;;;-1.98;100.00
64192;BME280;50497;50.720;-2.084;2022-12-15T00:13:39;101090.72;;;-2.01;100.00
64192;BME280;50497;50.720;-2.084;2022-12-15T00:16:24;101090.72;;;-2.02;100.00
64192;BME280;50497;50.720;-2.084;2022-12-15T00:19:08;101074.97;;;-2.06;100.00
64192;BME280;50497;50.720;-2.084;2022-12-15T00:21:52;101085.50;;;-2.02;100.00
64192;BME280;50497;50.720;-2.084;2022-12-15T00:24:37;101078.44;;;-2.07;100.00
64192;BME280;50497;50.720;-2.084;2022-12-15T00:27:21;101076.69;;;-2.05;100.00
64192;BME280;50497;50.720;-2.084;2022-12-15T00:30:06;101082.84;;;-2.06;100.00
64192;BME280;50497;50.720;-2.084;2022-12-15T00:32:50;101077.63;;;-2.02;100.00
64192;BME280;50497;50.720;-2.084;2022-12-15T00:35:35;101076.69;;;-2.06;100.00
64192;BME280;50497;50.720;-2.084;2022-12-15T00:38:19;101081.91;;;-2.08;100.00
64192;BME280;50497;50.720;-2.084;2022-12-15T00:41:03;101082.78;;;-2.09;100.00
64192;BME280;50497;50.720;-2.084;2022-12-15T00:43:31;101085.41;;;-2.09;100.00
64192;BME280;50497;50.720;-2.084;2022-12-15T00:45:57;101095.94;;;-2.06;100.00
64192;BME280;50497;50.720;-2.084;2022-12-15T00:48:42;101100.25;;;-2.08;100.00
64192;BME280;50497;50.720;-2.084;2022-12-15T00:51:08;101095.03;;;-2.08;100.00
64192;BME280;50497;50.720;-2.084;2022-12-15T00:53:33;101094.22;;;-2.03;100.00
64192;BME280;50497;50.720;-2.084;2022-12-15T00:56:18;101095.91;;;-2.09;100.00
64192;BME280;50497;50.720;-2.084;2022-12-15T00:59:03;101099.38;;;-2.10;100.00
64192;BME280;50497;50.720;-2.084;2022-12-15T01:01:47;101087.16;;;-2.11;100.00
64192;BME280;50497;50.720;-2.084;2022-12-15T01:04:31;101095.91;;;-2.09;100.00
64192;BME280;50497;50.720;-2.084;2022-12-15T01:07:15;101097.66;;;-2.06;100.00
64192;BME280;50497;50.720;-2.084;2022-12-15T01:10:00;101084.50;;;-2.12;100.00
64192;BME280;50497;50.720;-2.084;2022-12-15T01:12:48;101099.44;;;-2.03;100.00
64192;BME280;50497;50.720;-2.084;2022-12-15T01:15:36;101102.03;;;-2.08;100.00
64192;BME280;50497;50.720;-2.084;2022-12-15T01:18:20;101104.63;;;-2.10;100.00
64192;BME280;50497;50.720;-2.084;2022-12-15T01:21:06;101115.19;;;-2.03;100.00
64192;BME280;50497;50.720;-2.084;2022-12-15T01:23:35;101089.69;;;-2.18;100.00
64192;BME280;50497;50.720;-2.084;2022-12-15T01:26:02;101097.59;;;-2.14;100.00
64192;BME280;50497;50.720;-2.084;2022-12-15T01:28:28;101098.41;;;-2.18;100.00
64192;BME280;50497;50.720;-2.084;2022-12-15T01:30:53;101086.09;;;-2.27;100.00
64192;BME280;50497;50.720;-2.084;2022-12-15T01:33:23;101103.63;;;-2.24;100.00
64192;BME280;50497;50.720;-2.084;2022-12-15T01:35:59;101099.16;;;-2.30;100.00
64192;BME280;50497;50.720;-2.084;2022-12-15T01:38:25;101091.28;;;-2.31;100.00
64192;BME280;50497;50.720;-2.084;2022-12-15T01:40:59;101107.91;;;-2.31;100.00
64192;BME280;50497;50.720;-2.084;2022-12-15T01:43:29;101099.19;;;-2.28;100.00
64192;BME280;50497;50.720;-2.084;2022-12-15T01:46:11;101104.38;;;-2.31;100.00
64192;BME280;50497;50.720;-2.084;2022-12-15T01:48:43;101097.34;;;-2.38;100.00
64192;BME280;50497;50.720;-2.084;2022-12-15T01:51:23;101117.53;;;-2.28;100.00
64192;BME280;50497;50.720;-2.084;2022-12-15T01:56:30;101119.22;;;-2.35;100.00
64192;BME280;50497;50.720;-2.084;2022-12-15T01:59:00;101114.78;;;-2.40;100.00
64192;BME280;50497;50.720;-2.084;2022-12-15T02:01:28;101120.03;;;-2.40;100.00
64192;BME280;50497;50.720;-2.084;2022-12-15T02:03:54;101117.25;;;-2.51;100.00
64192;BME280;50497;50.720;-2.084;2022-12-15T02:06:20;101123.38;;;-2.51;100.00
64192;BME280;50497;50.720;-2.084;2022-12-15T02:08:55;101101.41;;;-2.64;100.00
64192;BME280;50497;50.720;-2.084;2022-12-15T02:14:15;101132.00;;;-2.60;100.00
64192;BME280;50497;50.720;-2.084;2022-12-15T02:16:55;101131.13;;;-2.60;100.00
64192;BME280;50497;50.720;-2.084;2022-12-15T02:22:35;101139.78;;;-2.67;100.00
64192;BME280;50497;50.720;-2.084;2022-12-15T02:30:47;101128.44;;;-2.66;100.00
64192;BME280;50497;50.720;-2.084;2022-12-15T02:33:40;101128.34;;;-2.71;100.00
64192;BME280;50497;50.720;-2.084;2022-12-15T02:36:27;101133.56;;;-2.75;100.00
64192;BME280;50497;50.720;-2.084;2022-12-15T02:38:58;101129.22;;;-2.73;100.00
64192;BME280;50497;50.720;-2.084;2022-12-15T02:41:41;101133.50;;;-2.79;100.00
64192;BME280;50497;50.720;-2.084;2022-12-15T02:49:15;101144.06;;;-2.72;100.00
64192;BME280;50497;50.720;-2.084;2022-12-15T02:51:56;101144.06;;;-2.72;100.00
64192;BME280;50497;50.720;-2.084;2022-12-15T02:54:42;101138.69;;;-2.83;100.00
64192;BME280;50497;50.720;-2.084;2022-12-15T03:00:03;101136.88;;;-2.87;100.00
64192;BME280;50497;50.720;-2.084;2022-12-15T03:02:31;101137.72;;;-2.90;100.00
64192;BME280;50497;50.720;-2.084;2022-12-15T03:04:59;101138.56;;;-2.91;100.00
64192;BME280;50497;50.720;-2.084;2022-12-15T03:07:28;101141.09;;;-2.95;100.00
64192;BME280;50497;50.720;-2.084;2022-12-15T03:09:57;101142.00;;;-2.95;100.00
64192;BME280;50497;50.720;-2.084;2022-12-15T03:12:31;101120.84;;;-3.10;100.00
64192;BME280;50497;50.720;-2.084;2022-12-15T03:14:56;101126.91;;;-3.13;100.00
64192;BME280;50497;50.720;-2.084;2022-12-15T03:17:22;101145.44;;;-2.99;100.00
64192;BME280;50497;50.720;-2.084;2022-12-15T03:19:53;101138.44;;;-3.00;100.00
64192;BME280;50497;50.720;-2.084;2022-12-15T03:22:19;101127.84;;;-3.08;100.00
64192;BME280;50497;50.720;-2.084;2022-12-15T03:24:44;101133.91;;;-3.13;100.00
64192;BME280;50497;50.720;-2.084;2022-12-15T03:27:13;101137.38;;;-3.13;100.00
64192;BME280;50497;50.720;-2.084;2022-12-15T03:29:39;101142.59;;;-3.14;100.00
64192;BME280;50497;50.720;-2.084;2022-12-15T03:32:04;101139.06;;;-3.17;100.00
64192;BME280;50497;50.720;-2.084;2022-12-15T03:34:30;101140.78;;;-3.17;100.00
64192;BME280;50497;50.720;-2.084;2022-12-15T03:36:56;101141.59;;;-3.23;100.00
64192;BME280;50497;50.720;-2.084;2022-12-15T03:39:21;101141.47;;;-3.32;100.00
64192;BME280;50497;50.720;-2.084;2022-12-15T03:41:47;101143.22;;;-3.31;100.00
64192;BME280;50497;50.720;-2.084;2022-12-15T03:44:20;101140.56;;;-3.32;100.00
64192;BME280;50497;50.720;-2.084;2022-12-15T03:46:52;101147.50;;;-3.36;100.00
64192;BME280;50497;50.720;-2.084;2022-12-15T03:49:18;101125.56;;;-3.44;100.00
64192;BME280;50497;50.720;-2.084;2022-12-15T03:51:43;101130.78;;;-3.44;100.00
64192;BME280;50497;50.720;-2.084;2022-12-15T03:54:13;101152.66;;;-3.39;100.00
64192;BME280;50497;50.720;-2.084;2022-12-15T03:56:39;101137.63;;;-3.53;100.00
64192;BME280;50497;50.720;-2.084;2022-12-15T03:59:05;101154.38;;;-3.41;100.00
64192;BME280;50497;50.720;-2.084;2022-12-15T04:01:34;101147.44;;;-3.39;100.00
64192;BME280;50497;50.720;-2.084;2022-12-15T04:04:00;101147.31;;;-3.45;100.00
64192;BME280;50497;50.720;-2.084;2022-12-15T04:06:26;101138.66;;;-3.43;100.00
64192;BME280;50497;50.720;-2.084;2022-12-15T04:08:52;101133.47;;;-3.40;100.00
64192;BME280;50497;50.720;-2.084;2022-12-15T04:11:18;101129.13;;;-3.39;100.00
64192;BME280;50497;50.720;-2.084;2022-12-15T04:13:44;101115.00;;;-3.49;100.00
64192;BME280;50497;50.720;-2.084;2022-12-15T04:16:13;101134.41;;;-3.36;100.00
64192;BME280;50497;50.720;-2.084;2022-12-15T04:18:41;101109.78;;;-3.49;100.00
64192;BME280;50497;50.720;-2.084;2022-12-15T04:21:07;101132.63;;;-3.37;100.00
64192;BME280;50497;50.720;-2.084;2022-12-15T04:23:40;101131.78;;;-3.36;100.00
64192;BME280;50497;50.720;-2.084;2022-12-15T04:26:24;101127.38;;;-3.40;100.00
64192;BME280;50497;50.720;-2.084;2022-12-15T04:29:08;101125.66;;;-3.38;100.00
64192;BME280;50497;50.720;-2.084;2022-12-15T04:31:52;101122.09;;;-3.43;100.00
64192;BME280;50497;50.720;-2.084;2022-12-15T04:34:36;101140.41;;;-3.43;100.00
64192;BME280;50497;50.720;-2.084;2022-12-15T04:37:20;101139.53;;;-3.42;100.00
64192;BME280;50497;50.720;-2.084;2022-12-15T04:40:05;101136.00;;;-3.44;100.00
64192;BME280;50497;50.720;-2.084;2022-12-15T04:42:53;101130.78;;;-3.44;100.00
64192;BME280;50497;50.720;-2.084;2022-12-15T04:45:38;101136.91;;;-3.42;100.00
64192;BME280;50497;50.720;-2.084;2022-12-15T04:48:22;101135.16;;;-3.45;100.00
64192;BME280;50497;50.720;-2.084;2022-12-15T04:51:07;101129.06;;;-3.42;100.00
64192;BME280;50497;50.720;-2.084;2022-12-15T04:53:51;101119.31;;;-3.53;100.00
64192;BME280;50497;50.720;-2.084;2022-12-15T04:56:38;101146.47;;;-3.44;100.00
64192;BME280;50497;50.720;-2.084;2022-12-15T04:59:22;101132.56;;;-3.43;100.00
64192;BME280;50497;50.720;-2.084;2022-12-15T05:02:06;101136.09;;;-3.40;100.00
64192;BME280;50497;50.720;-2.084;2022-12-15T05:04:50;101144.81;;;-3.39;100.00
64192;BME280;50497;50.720;-2.084;2022-12-15T05:07:34;101144.06;;;-3.30;100.00
64192;BME280;50497;50.720;-2.084;2022-12-15T05:10:18;101145.78;;;-3.32;100.00
64192;BME280;50497;50.720;-2.084;2022-12-15T05:13:05;101137.91;;;-3.36;100.00
64192;BME280;50497;50.720;-2.084;2022-12-15T05:15:49;101136.94;;;-3.41;100.00
64192;BME280;50497;50.720;-2.084;2022-12-15T05:18:33;101148.47;;;-3.29;100.00
64192;BME280;50497;50.720;-2.084;2022-12-15T05:21:17;101146.66;;;-3.35;100.00
64192;BME280;50497;50.720;-2.084;2022-12-15T05:24:07;101128.97;;;-3.50;100.00
64192;BME280;50497;50.720;-2.084;2022-12-15T05:26:55;101122.84;;;-3.50;100.00
64192;BME280;50497;50.720;-2.084;2022-12-15T05:29:42;101150.91;;;-3.42;100.00
64192;BME280;50497;50.720;-2.084;2022-12-15T05:32:26;101149.25;;;-3.37;100.00
64192;BME280;50497;50.720;-2.084;2022-12-15T05:34:55;101149.22;;;-3.38;100.00
64192;BME280;50497;50.720;-2.084;2022-12-15T05:37:24;101148.25;;;-3.43;100.00
64192;BME280;50497;50.720;-2.084;2022-12-15T05:39:52;101152.72;;;-3.36;100.00
64192;BME280;50497;50.720;-2.084;2022-12-15T05:42:21;101142.00;;;-3.51;100.00
64192;BME280;50497;50.720;-2.084;2022-12-15T05:44:51;101158.78;;;-3.40;100.00
64192;BME280;50497;50.720;-2.084;2022-12-15T05:47:19;101155.41;;;-3.31;100.00
64192;BME280;50497;50.720;-2.084;2022-12-15T05:49:45;101158.03;;;-3.31;100.00
64192;BME280;50497;50.720;-2.084;2022-12-15T05:52:10;101152.81;;;-3.31;100.00
64192;BME280;50497;50.720;-2.084;2022-12-15T05:54:39;101169.25;;;-3.37;100.00
64192;BME280;50497;50.720;-2.084;2022-12-15T05:57:08;101163.94;;;-3.43;100.00
64192;BME280;50497;50.720;-2.084;2022-12-15T05:59:34;101159.53;;;-3.46;100.00
64192;BME280;50497;50.720;-2.084;2022-12-15T06:02:03;101147.13;;;-3.58;100.00
64192;BME280;50497;50.720;-2.084;2022-12-15T06:04:33;101162.94;;;-3.51;100.00
64192;BME280;50497;50.720;-2.084;2022-12-15T06:06:58;101173.34;;;-3.55;100.00
64192;BME280;50497;50.720;-2.084;2022-12-15T06:09:29;101172.53;;;-3.50;100.00
64192;BME280;50497;50.720;-2.084;2022-12-15T06:12:02;101173.41;;;-3.51;100.00
64192;BME280;50497;50.720;-2.084;2022-12-15T06:14:27;101173.44;;;-3.50;100.00
64192;BME280;50497;50.720;-2.084;2022-12-15T06:17:02;101172.63;;;-3.46;100.00
64192;BME280;50497;50.720;-2.084;2022-12-15T06:19:28;101164.75;;;-3.47;100.00
64192;BME280;50497;50.720;-2.084;2022-12-15T06:21:54;101169.19;;;-3.43;100.00
64192;BME280;50497;50.720;-2.084;2022-12-15T06:24:23;101179.56;;;-3.48;100.00
64192;BME280;50497;50.720;-2.084;2022-12-15T06:26:50;101183.94;;;-3.48;100.00
64192;BME280;50497;50.720;-2.084;2022-12-15T06:29:16;101176.06;;;-3.50;100.00
64192;BME280;50497;50.720;-2.084;2022-12-15T06:31:43;101181.19;;;-3.55;100.00
64192;BME280;50497;50.720;-2.084;2022-12-15T06:34:13;101188.31;;;-3.46;100.00
64192;BME280;50497;50.720;-2.084;2022-12-15T06:36:40;101181.38;;;-3.42;100.00
64192;BME280;50497;50.720;-2.084;2022-12-15T06:39:11;101194.31;;;-3.53;100.00
64192;BME280;50497;50.720;-2.084;2022-12-15T06:41:38;101175.78;;;-3.64;100.00
64192;BME280;50497;50.720;-2.084;2022-12-15T06:44:06;101196.88;;;-3.55;100.00
64192;BME280;50497;50.720;-2.084;2022-12-15T06:46:35;101197.66;;;-3.59;100.00
64192;BME280;50497;50.720;-2.084;2022-12-15T06:49:03;101197.72;;;-3.56;100.00
64192;BME280;50497;50.720;-2.084;2022-12-15T06:51:29;101201.22;;;-3.57;100.00
64192;BME280;50497;50.720;-2.084;2022-12-15T06:53:58;101196.97;;;-3.50;100.00
64192;BME280;50497;50.720;-2.084;2022-12-15T06:56:34;101197.69;;;-3.57;100.00
64192;BME280;50497;50.720;-2.084;2022-12-15T06:59:06;101191.72;;;-3.51;100.00
64192;BME280;50497;50.720;-2.084;2022-12-15T07:01:42;101171.44;;;-3.65;100.00
64192;BME280;50497;50.720;-2.084;2022-12-15T07:04:12;101201.34;;;-3.47;100.00
64192;BME280;50497;50.720;-2.084;2022-12-15T07:06:38;101202.22;;;-3.48;100.00
64192;BME280;50497;50.720;-2.084;2022-12-15T07:09:12;101205.63;;;-3.53;100.00
64192;BME280;50497;50.720;-2.084;2022-12-15T07:11:40;101201.25;;;-3.55;100.00
64192;BME280;50497;50.720;-2.084;2022-12-15T07:14:08;101205.56;;;-3.56;100.00
64192;BME280;50497;50.720;-2.084;2022-12-15T07:16:34;101209.13;;;-3.54;100.00
64192;BME280;50497;50.720;-2.084;2022-12-15T07:19:03;101193.28;;;-3.61;100.00
64192;BME280;50497;50.720;-2.084;2022-12-15T07:21:29;101213.53;;;-3.49;100.00
64192;BME280;50497;50.720;-2.084;2022-12-15T07:24:01;101216.22;;;-3.46;100.00
64192;BME280;50497;50.720;-2.084;2022-12-15T07:26:26;101208.16;;;-3.57;100.00
64192;BME280;50497;50.720;-2.084;2022-12-15T07:28:52;101217.75;;;-3.58;100.00
64192;BME280;50497;50.720;-2.084;2022-12-15T07:31:21;101211.66;;;-3.58;100.00
64192;BME280;50497;50.720;-2.084;2022-12-15T07:33:47;101217.75;;;-3.58;100.00
64192;BME280;50497;50.720;-2.084;2022-12-15T07:36:12;101202.78;;;-3.66;100.00
64192;BME280;50497;50.720;-2.084;2022-12-15T07:38:38;101201.66;;;-3.79;100.00
64192;BME280;50497;50.720;-2.084;2022-12-15T07:41:05;101206.91;;;-3.79;100.00
64192;BME280;50497;50.720;-2.084;2022-12-15T07:43:31;101224.56;;;-3.66;100.00
64192;BME280;50497;50.720;-2.084;2022-12-15T07:45:57;101219.22;;;-3.72;100.00
64192;BME280;50497;50.720;-2.084;2022-12-15T07:48:26;101227.81;;;-3.79;100.00
64192;BME280;50497;50.720;-2.084;2022-12-15T07:51:04;101228.63;;;-3.82;100.00
64192;BME280;50497;50.720;-2.084;2022-12-15T07:53:33;101222.41;;;-3.88;100.00
64192;BME280;50497;50.720;-2.084;2022-12-15T07:55:59;101231.25;;;-3.83;100.00
64192;BME280;50497;50.720;-2.084;2022-12-15T07:58:29;101213.59;;;-3.94;100.00
64192;BME280;50497;50.720;-2.084;2022-12-15T08:01:04;101228.50;;;-3.90;100.00
64192;BME280;50497;50.720;-2.084;2022-12-15T08:03:32;101224.03;;;-3.94;100.00
64192;BME280;50497;50.720;-2.084;2022-12-15T08:05:57;101218.44;;;-4.12;100.00
64192;BME280;50497;50.720;-2.084;2022-12-15T08:08:23;101225.69;;;-3.99;100.00
64192;BME280;50497;50.720;-2.084;2022-12-15T08:10:49;101216.84;;;-4.05;100.00
64192;BME280;50497;50.720;-2.084;2022-12-15T08:13:15;101236.94;;;-4.03;100.00
64192;BME280;50497;50.720;-2.084;2022-12-15T08:15:41;101238.72;;;-4.00;100.00
64192;BME280;50497;50.720;-2.084;2022-12-15T08:18:07;101235.44;;;-3.92;100.00
64192;BME280;50497;50.720;-2.084;2022-12-15T08:20:33;101238.88;;;-3.93;100.00
64192;BME280;50497;50.720;-2.084;2022-12-15T08:22:59;101222.28;;;-3.95;100.00
64192;BME280;50497;50.720;-2.084;2022-12-15T08:25:25;101242.50;;;-3.86;100.00
64192;BME280;50497;50.720;-2.084;2022-12-15T08:27:54;101244.06;;;-3.94;100.00
64192;BME280;50497;50.720;-2.084;2022-12-15T08:30:20;101242.31;;;-3.95;100.00
64192;BME280;50497;50.720;-2.084;2022-12-15T08:32:49;101243.25;;;-3.93;100.00
64192;BME280;50497;50.720;-2.084;2022-12-15T08:35:18;101250.22;;;-3.92;100.00
64192;BME280;50497;50.720;-2.084;2022-12-15T08:37:43;101243.22;;;-3.95;100.00
64192;BME280;50497;50.720;-2.084;2022-12-15T08:40:10;101254.66;;;-3.88;100.00
64192;BME280;50497;50.720;-2.084;2022-12-15T08:42:36;101242.34;;;-3.94;100.00
64192;BME280;50497;50.720;-2.084;2022-12-15T08:45:02;101256.50;;;-3.82;100.00
64192;BME280;50497;50.720;-2.084;2022-12-15T08:47:28;101277.66;;;-3.72;100.00
64192;BME280;50497;50.720;-2.084;2022-12-15T08:49:53;101278.59;;;-3.68;100.00
64192;BME280;50497;50.720;-2.084;2022-12-15T08:52:20;101282.94;;;-3.68;100.00
64192;BME280;50497;50.720;-2.084;2022-12-15T08:54:46;101266.19;;;-3.78;100.00
64192;BME280;50497;50.720;-2.084;2022-12-15T08:57:11;101284.59;;;-3.72;100.00
64192;BME280;50497;50.720;-2.084;2022-12-15T08:59:37;101284.63;;;-3.71;100.00
64192;BME280;50497;50.720;-2.084;2022-12-15T09:02:03;101282.84;;;-3.73;100.00
64192;BME280;50497;50.720;-2.084;2022-12-15T09:04:33;101293.31;;;-3.73;100.00
64192;BME280;50497;50.720;-2.084;2022-12-15T09:06:58;101269.69;;;-3.78;100.00
64192;BME280;50497;50.720;-2.084;2022-12-15T09:09:23;101298.81;;;-3.59;100.00
64192;BME280;50497;50.720;-2.084;2022-12-15T09:11:49;101290.06;;;-3.61;100.00
64192;BME280;50497;50.720;-2.084;2022-12-15T09:14:16;101297.09;;;-3.57;100.00
64192;BME280;50497;50.720;-2.084;2022-12-15T09:16:41;101289.13;;;-3.65;100.00
64192;BME280;50497;50.720;-2.084;2022-12-15T09:19:08;101299.75;;;-3.56;100.00
64192;BME280;50497;50.720;-2.084;2022-12-15T09:21:34;101294.53;;;-3.54;100.00
64192;BME280;50497;50.720;-2.084;2022-12-15T09:24:01;101305.13;;;-3.48;100.00
64192;BME280;50497;50.720;-2.084;2022-12-15T09:26:29;101306.06;;;-3.44;100.00
64192;BME280;50497;50.720;-2.084;2022-12-15T09:28:56;101306.03;;;-3.46;100.00
64192;BME280;50497;50.720;-2.084;2022-12-15T09:31:23;101307.88;;;-3.42;100.00
64192;BME280;50497;50.720;-2.084;2022-12-15T09:33:51;101295.56;;;-3.46;100.00
64192;BME280;50497;50.720;-2.084;2022-12-15T09:36:17;101301.78;;;-3.39;100.00
64192;BME280;50497;50.720;-2.084;2022-12-15T09:38:42;101316.72;;;-3.35;100.00
64192;BME280;50497;50.720;-2.084;2022-12-15T09:41:21;101303.56;;;-3.38;100.00
64192;BME280;50497;50.720;-2.084;2022-12-15T09:46:23;101316.13;;;-3.20;100.00
64192;BME280;50497;50.720;-2.084;2022-12-15T09:48:52;101324.91;;;-3.17;100.00
64192;BME280;50497;50.720;-2.084;2022-12-15T09:51:28;101312.78;;;-3.11;100.00
64192;BME280;50497;50.720;-2.084;2022-12-15T09:53:57;101304.91;;;-3.13;100.00
64192;BME280;50497;50.720;-2.084;2022-12-15T09:56:35;101309.41;;;-3.04;100.00
64192;BME280;50497;50.720;-2.084;2022-12-15T09:59:13;101306.06;;;-2.97;100.00
64192;BME280;50497;50.720;-2.084;2022-12-15T10:04:35;101320.09;;;-2.92;100.00
64192;BME280;50497;50.720;-2.084;2022-12-15T10:09:51;101299.13;;;-2.93;100.00
64192;BME280;50497;50.720;-2.084;2022-12-15T10:12:27;101318.66;;;-2.73;100.00
64192;BME280;50497;50.720;-2.084;2022-12-15T10:20:18;101300.81;;;-2.42;100.00
64192;BME280;50497;50.720;-2.084;2022-12-15T10:22:47;101319.28;;;-2.31;100.00
64192;BME280;50497;50.720;-2.084;2022-12-15T10:25:23;101318.56;;;-2.24;100.00
64192;BME280;50497;50.720;-2.084;2022-12-15T10:31:13;101317.69;;;-1.56;100.00
64192;BME280;50497;50.720;-2.084;2022-12-15T10:33:41;101324.56;;;-0.83;100.00
64192;BME280;50497;50.720;-2.084;2022-12-15T10:36:13;101302.22;;;-0.17;100.00
64192;BME280;50497;50.720;-2.084;2022-12-15T10:38:41;101317.06;;;-0.29;100.00
64192;BME280;50497;50.720;-2.084;2022-12-15T10:41:18;101305.47;;;-0.56;100.00
64192;BME280;50497;50.720;-2.084;2022-12-15T10:43:52;101300.13;;;-0.71;100.00
64192;BME280;50497;50.720;-2.084;2022-12-15T10:46:24;101314.22;;;-0.60;100.00
64192;BME280;50497;50.720;-2.084;2022-12-15T10:51:35;101291.16;;;0.65;100.00
64192;BME280;50497;50.720;-2.084;2022-12-15T10:56:29;101272.59;;;2.09;100.00
64192;BME280;50497;50.720;-2.084;2022-12-15T10:58:57;101287.28;;;2.64;100.00
64192;BME280;50497;50.720;-2.084;2022-12-15T11:01:32;101274.06;;;2.65;100.00
64192;BME280;50497;50.720;-2.084;2022-12-15T11:04:02;101270.00;;;1.89;100.00
64192;BME280;50497;50.720;-2.084;2022-12-15T11:06:32;101273.34;;;2.34;100.00
64192;BME280;50497;50.720;-2.084;2022-12-15T11:09:29;101270.81;;;2.14;100.00
64192;BME280;50497;50.720;-2.084;2022-12-15T11:11:57;101244.66;;;1.37;100.00
64192;BME280;50497;50.720;-2.084;2022-12-15T11:14:45;101253.34;;;1.76;100.00
64192;BME280;50497;50.720;-2.084;2022-12-15T11:17:17;101240.25;;;1.42;100.00
64192;BME280;50497;50.720;-2.084;2022-12-15T11:19:50;101248.19;;;1.05;100.00
64192;BME280;50497;50.720;-2.084;2022-12-15T11:22:45;101242.91;;;1.20;100.00
64192;BME280;50497;50.720;-2.084;2022-12-15T11:25:29;101231.44;;;1.47;100.00
64192;BME280;50497;50.720;-2.084;2022-12-15T11:27:59;101246.16;;;2.21;100.00
64192;BME280;50497;50.720;-2.084;2022-12-15T11:30:37;101248.59;;;2.52;100.00
64192;BME280;50497;50.720;-2.084;2022-12-15T11:33:07;101229.16;;;2.62;100.00
64192;BME280;50497;50.720;-2.084;2022-12-15T11:36:06;101217.03;;;4.19;100.00
64192;BME280;50497;50.720;-2.084;2022-12-15T11:38:42;101205.25;;;4.42;100.00
64192;BME280;50497;50.720;-2.084;2022-12-15T11:41:34;101204.47;;;3.65;100.00
64192;BME280;50497;50.720;-2.084;2022-12-15T11:46:54;101203.94;;;2.15;100.00
64192;BME280;50497;50.720;-2.084;2022-12-15T11:52:11;101197.91;;;1.87;100.00
64192;BME280;50497;50.720;-2.084;2022-12-15T11:54:52;101214.66;;;1.72;100.00
64192;BME280;50497;50.720;-2.084;2022-12-15T12:00:20;101203.22;;;1.77;100.00
64192;BME280;50497;50.720;-2.084;2022-12-15T12:06:05;101191.88;;;1.46;100.00
64192;BME280;50497;50.720;-2.084;2022-12-15T12:11:39;101185.75;;;1.39;100.00
64192;BME280;50497;50.720;-2.084;2022-12-15T12:19:44;101188.41;;;1.25;100.00
64192;BME280;50497;50.720;-2.084;2022-12-15T12:30:11;101171.72;;;1.26;100.00
64192;BME280;50497;50.720;-2.084;2022-12-15T12:33:09;101181.41;;;1.21;100.00
64192;BME280;50497;50.720;-2.084;2022-12-15T12:35:39;101176.09;;;1.23;100.00
64192;BME280;50497;50.720;-2.084;2022-12-15T12:38:11;101168.19;;;1.24;100.00
64192;BME280;50497;50.720;-2.084;2022-12-15T12:43:33;101162.00;;;1.41;100.00
64192;BME280;50497;50.720;-2.084;2022-12-15T12:46:08;101165.53;;;1.40;100.00
64192;BME280;50497;50.720;-2.084;2022-12-15T12:48:50;101145.38;;;1.29;100.00
64192;BME280;50497;50.720;-2.084;2022-12-15T12:51:28;101150.59;;;1.46;100.00
64192;BME280;50497;50.720;-2.084;2022-12-15T12:53:58;101140.03;;;1.51;100.00
64192;BME280;50497;50.720;-2.084;2022-12-15T12:56:33;101148.75;;;1.64;100.00
64192;BME280;50497;50.720;-2.084;2022-12-15T12:59:02;101140.81;;;1.72;100.00
64192;BME280;50497;50.720;-2.084;2022-12-15T13:01:34;101140.81;;;1.72;100.00
64192;BME280;50497;50.720;-2.084;2022-12-15T13:11:54;101143.38;;;1.85;100.00
64192;BME280;50497;50.720;-2.084;2022-12-15T13:14:33;101142.53;;;1.77;100.00
64192;BME280;50497;50.720;-2.084;2022-12-15T13:22:37;101141.72;;;1.64;100.00
64192;BME280;50497;50.720;-2.084;2022-12-15T13:25:34;101141.47;;;2.09;100.00
64192;BME280;50497;50.720;-2.084;2022-12-15T13:28:15;101125.47;;;2.35;100.00
64192;BME280;50497;50.720;-2.084;2022-12-15T13:33:56;101141.53;;;2.03;100.00
64192;BME280;50497;50.720;-2.084;2022-12-15T13:39:32;101138.09;;;1.87;100.00
64192;BME280;50497;50.720;-2.084;2022-12-15T13:47:11;101138.00;;;2.04;100.00
64192;BME280;50497;50.720;-2.084;2022-12-15T13:49:57;101129.28;;;1.90;100.00
64192;BME280;50497;50.720;-2.084;2022-12-15T13:52:35;101135.44;;;1.87;100.00
64192;BME280;50497;50.720;-2.084;2022-12-15T13:55:13;101130.25;;;1.72;100.00
64192;BME280;50497;50.720;-2.084;2022-12-15T13:57:50;101132.88;;;1.75;100.00
64192;BME280;50497;50.720;-2.084;2022-12-15T14:00:18;101103.91;;;1.62;100.00
64192;BME280;50497;50.720;-2.084;2022-12-15T14:02:48;101106.63;;;1.48;100.00
64192;BME280;50497;50.720;-2.084;2022-12-15T14:07:56;101116.25;;;1.57;100.00
64192;BME280;50497;50.720;-2.084;2022-12-15T14:12:50;101122.44;;;1.45;100.00
64192;BME280;50497;50.720;-2.084;2022-12-15T14:15:25;101121.59;;;1.45;100.00
64192;BME280;50497;50.720;-2.084;2022-12-15T14:17:53;101112.81;;;1.40;100.00
64192;BME280;50497;50.720;-2.084;2022-12-15T14:20:23;101116.31;;;1.48;100.00
64192;BME280;50497;50.720;-2.084;2022-12-15T14:22:49;101116.31;;;1.48;100.00
64192;BME280;50497;50.720;-2.084;2022-12-15T14:25:23;101119.81;;;1.44;100.00
64192;BME280;50497;50.720;-2.084;2022-12-15T14:27:49;101113.69;;;1.40;100.00
64192;BME280;50497;50.720;-2.084;2022-12-15T14:32:57;101086.53;;;1.21;100.00
64192;BME280;50497;50.720;-2.084;2022-12-15T14:35:30;101121.66;;;1.29;100.00
64192;BME280;50497;50.720;-2.084;2022-12-15T14:37:59;101126.00;;;1.31;100.00
64192;BME280;50497;50.720;-2.084;2022-12-15T14:40:26;101129.53;;;1.31;100.00
64192;BME280;50497;50.720;-2.084;2022-12-15T14:42:56;101128.66;;;1.26;100.00
64192;BME280;50497;50.720;-2.084;2022-12-15T14:45:26;101121.66;;;1.17;100.00
64192;BME280;50497;50.720;-2.084;2022-12-15T14:48:01;101140.97;;;1.19;100.00
64192;BME280;50497;50.720;-2.084;2022-12-15T14:50:34;101139.25;;;1.12;100.00